Time;durP1;ratioP1;P1;durP2;ratioP2;P2;SDS_P1;SDS_P2;PMS_P1;PMS_P2;Temp;Humidity;BMP_temperature;BMP_pressure;BME280_temperature;BME280_humidity;BME280_pressure;Samples;Min_cycle;Max_cycle;Signal;HPM_P1;HPM_P2
2022/05/15 00:02:21;;;;;;;21.77;5.82;;;10.70;99.90;;;;;;7399286;19;20011;-79
2022/05/15 00:04:50;;;;;;;21.00;6.70;;;10.60;99.90;;;;;;7398693;19;20014;-78
2022/05/15 00:07:19;;;;;;;25.58;6.53;;;10.60;99.90;;;;;;7398957;19;20022;-79
2022/05/15 00:09:48;;;;;;;22.00;6.25;;;10.70;99.90;;;;;;7399455;19;20426;-79
2022/05/15 00:12:20;;;;;;;23.17;6.80;;;10.60;99.90;;;;;;7399120;19;20374;-79
2022/05/15 00:14:49;;;;;;;25.48;6.32;;;10.70;99.90;;;;;;7399155;19;20501;-79
2022/05/15 00:17:21;;;;;;;21.42;6.07;;;10.70;99.90;;;;;;7397262;19;20019;-79
2022/05/15 00:19:50;;;;;;;22.92;6.50;;;10.30;99.90;;;;;;7398687;19;20010;-79
2022/05/15 00:22:19;;;;;;;25.35;6.07;;;10.60;99.90;;;;;;7400306;19;20018;-78
2022/05/15 00:24:48;;;;;;;26.58;6.97;;;;;;;;;;7398332;19;20010;-79
2022/05/15 00:27:23;;;;;;;23.02;6.32;;;;;;;;;;7398081;19;20018;-79
2022/05/15 00:29:53;;;;;;;24.08;7.05;;;10.40;99.90;;;;;;7399647;19;20021;-79
2022/05/15 00:32:24;;;;;;;24.98;6.93;;;10.60;99.90;;;;;;7398518;19;20024;-79
2022/05/15 00:34:53;;;;;;;19.88;6.43;;;10.70;99.90;;;;;;7397772;19;20777;-79
2022/05/15 00:37:22;;;;;;;23.70;6.18;;;;;;;;;;7397069;19;20516;-78
2022/05/15 00:39:52;;;;;;;22.65;6.45;;;10.40;99.90;;;;;;7400335;19;20015;-79
2022/05/15 00:42:21;;;;;;;21.40;6.72;;;10.40;99.90;;;;;;7397687;19;20333;-79
2022/05/15 00:44:49;;;;;;;24.75;6.60;;;10.70;99.90;;;;;;7398069;19;20018;-79
2022/05/15 00:47:18;;;;;;;22.50;7.22;;;10.40;99.90;;;;;;7399964;19;20018;-79
2022/05/15 00:49:50;;;;;;;19.42;6.70;;;10.20;99.90;;;;;;7397319;19;20038;-79
2022/05/15 00:52:23;;;;;;;23.45;6.80;;;11.40;99.90;;;;;;7397535;19;20015;-79
2022/05/15 00:54:57;;;;;;;27.73;6.68;;;10.60;99.90;;;;;;7394898;19;20087;-79
2022/05/15 00:57:32;;;;;;;23.55;6.95;;;10.30;99.90;;;;;;7396162;19;20469;-79
2022/05/15 01:00:07;;;;;;;26.95;7.13;;;10.10;99.90;;;;;;7397202;19;20054;-79
2022/05/15 01:02:40;;;;;;;31.55;7.63;;;10.00;99.90;;;;;;7397068;19;20018;-79
2022/05/15 01:05:14;;;;;;;26.40;7.10;;;10.20;99.90;;;;;;7401089;19;20028;-79
2022/05/15 01:07:43;;;;;;;24.05;6.85;;;10.30;99.90;;;;;;7401161;19;20536;-79
2022/05/15 01:10:13;;;;;;;24.88;6.82;;;10.50;99.90;;;;;;7401641;19;20015;-79
2022/05/15 01:12:43;;;;;;;24.60;6.38;;;10.50;99.90;;;;;;7396556;19;20019;-79
2022/05/15 01:15:17;;;;;;;24.73;6.60;;;10.20;99.90;;;;;;7396725;19;20018;-79
2022/05/15 01:17:45;;;;;;;23.02;7.05;;;10.40;99.90;;;;;;7395225;19;20484;-79
2022/05/15 01:20:26;;;;;;;24.98;6.65;;;10.10;99.90;;;;;;7396501;19;20480;-79
2022/05/15 01:22:58;;;;;;;26.52;6.63;;;10.00;99.90;;;;;;7400304;19;20011;-79
2022/05/15 01:25:29;;;;;;;20.38;7.25;;;9.90;99.90;;;;;;7396780;19;20038;-79
2022/05/15 01:28:04;;;;;;;25.15;7.03;;;9.90;99.90;;;;;;7395954;19;20021;-80
2022/05/15 01:30:34;;;;;;;24.45;6.88;;;9.80;99.90;;;;;;7396014;19;20379;-80
2022/05/15 01:33:03;;;;;;;23.27;7.43;;;;;;;;;;7395873;19;20083;-80
2022/05/15 01:35:32;;;;;;;24.80;6.90;;;9.80;99.90;;;;;;7396116;19;20038;-80
2022/05/15 01:38:04;;;;;;;26.38;7.55;;;9.50;99.90;;;;;;7396310;19;20362;-80
2022/05/15 01:40:33;;;;;;;25.35;7.63;;;9.80;99.90;;;;;;7395665;19;20047;-80
2022/05/15 01:43:03;;;;;;;24.48;6.70;;;9.50;99.90;;;;;;7396015;19;20021;-80
2022/05/15 01:45:32;;;;;;;26.83;7.75;;;9.70;99.90;;;;;;7395680;19;20021;-80
2022/05/15 01:48:01;;;;;;;21.52;7.40;;;;;;;;;;7395512;19;20021;-80
2022/05/15 01:50:30;;;;;;;23.70;7.85;;;9.40;99.90;;;;;;7395258;19;20030;-80
2022/05/15 01:52:59;;;;;;;24.73;7.28;;;9.50;99.90;;;;;;7395521;19;20536;-80
2022/05/15 01:55:30;;;;;;;23.42;7.25;;;9.30;99.90;;;;;;7396710;19;20086;-80
2022/05/15 01:57:59;;;;;;;22.92;6.93;;;9.60;99.90;;;;;;7395376;19;20015;-80
2022/05/15 02:00:29;;;;;;;21.25;7.40;;;9.40;99.90;;;;;;7395130;19;20533;-80
2022/05/15 02:02:59;;;;;;;23.70;7.45;;;9.20;99.90;;;;;;7395237;19;20026;-80
2022/05/15 02:05:28;;;;;;;21.50;7.13;;;9.90;99.90;;;;;;7395067;19;20014;-80
2022/05/15 02:07:57;;;;;;;21.85;7.35;;;9.50;99.90;;;;;;7393217;19;20014;-80
2022/05/15 02:10:26;;;;;;;21.58;7.20;;;;;;;;;;7398104;19;20022;-79
2022/05/15 02:12:58;;;;;;;25.10;7.32;;;9.50;99.90;;;;;;7398510;19;20021;-80
2022/05/15 02:15:27;;;;;;;25.83;7.72;;;;;;;;;;7394877;19;20041;-80
2022/05/15 02:17:56;;;;;;;27.33;8.18;;;9.40;99.90;;;;;;7393922;19;20030;-80
2022/05/15 02:20:26;;;;;;;24.58;8.15;;;9.50;99.90;;;;;;7395320;19;20018;-80
2022/05/15 02:22:55;;;;;;;26.80;7.28;;;9.50;99.90;;;;;;7394776;19;20516;-80
2022/05/15 02:25:26;;;;;;;23.77;7.45;;;9.30;99.90;;;;;;7394369;19;20006;-80
2022/05/15 02:27:58;;;;;;;24.33;7.45;;;9.80;99.90;;;;;;7393861;19;20073;-80
2022/05/15 02:30:27;;;;;;;22.88;7.80;;;9.40;99.90;;;;;;7398917;19;20034;-78
2022/05/15 02:32:56;;;;;;;25.85;7.03;;;9.20;99.90;;;;;;7394065;19;20007;-78
2022/05/15 02:35:25;;;;;;;24.83;7.93;;;;;;;;;;7394390;19;20081;-77
2022/05/15 02:37:54;;;;;;;27.48;7.47;;;9.30;99.90;;;;;;7396732;19;20086;-78
2022/05/15 02:40:25;;;;;;;25.48;7.50;;;9.60;99.90;;;;;;7394153;19;20030;-78
2022/05/15 02:42:57;;;;;;;26.13;7.32;;;9.30;99.90;;;;;;7393867;19;20423;-79
2022/05/15 02:45:27;;;;;;;27.35;8.02;;;9.30;99.90;;;;;;7394539;19;20048;-79
2022/05/15 02:47:56;;;;;;;25.60;7.80;;;9.30;99.90;;;;;;7393839;19;20018;-79
2022/05/15 02:53:07;;;;;;;20.63;7.55;;;9.30;99.90;;;;;;7393623;19;20090;-79
2022/05/15 02:55:36;;;;;;;28.65;7.90;;;9.30;99.90;;;;;;7392109;19;20007;-79
2022/05/15 02:58:08;;;;;;;19.80;7.30;;;9.10;99.90;;;;;;7392270;19;20081;-79
2022/05/15 03:00:37;;;;;;;28.23;7.57;;;9.20;99.90;;;;;;7391975;19;20471;-79
2022/05/15 03:03:07;;;;;;;24.58;7.32;;;9.10;99.90;;;;;;7395240;19;20082;-79
2022/05/15 03:05:36;;;;;;;29.77;8.13;;;8.80;99.90;;;;;;7393228;19;20017;-79
2022/05/15 03:08:05;;;;;;;27.65;8.25;;;;;;;;;;7394992;19;20010;-79
2022/05/15 03:10:34;;;;;;;25.77;7.70;;;9.10;99.90;;;;;;7393002;19;20037;-79
2022/05/15 03:13:03;;;;;;;29.02;8.20;;;9.00;99.90;;;;;;7393062;19;20021;-79
2022/05/15 03:15:35;;;;;;;27.75;8.95;;;9.20;99.90;;;;;;7394034;19;20035;-79
2022/05/15 03:18:04;;;;;;;24.35;7.68;;;8.80;99.90;;;;;;7397061;19;20017;-79
2022/05/15 03:20:33;;;;;;;32.55;8.95;;;;;;;;;;7402933;19;20021;-79
2022/05/15 03:23:02;;;;;;;21.30;8.25;;;9.10;99.90;;;;;;7400890;19;20021;-79
2022/05/15 03:25:33;;;;;;;29.60;7.80;;;9.40;99.90;;;;;;7400212;19;20014;-79
2022/05/15 03:28:04;;;;;;;26.15;8.77;;;9.00;99.90;;;;;;7399987;19;20034;-79
2022/05/15 03:30:36;;;;;;;23.80;7.95;;;8.80;99.90;;;;;;7400265;19;20010;-79
2022/05/15 03:33:08;;;;;;;25.95;8.35;;;9.00;99.90;;;;;;7399935;19;20070;-79
2022/05/15 03:35:37;;;;;;;25.30;8.18;;;8.90;99.90;;;;;;7400432;19;20024;-79
2022/05/15 03:38:06;;;;;;;28.45;8.98;;;8.90;99.90;;;;;;7403059;19;20018;-79
2022/05/15 03:40:36;;;;;;;26.17;8.32;;;9.00;99.90;;;;;;7399807;19;20345;-79
2022/05/15 03:43:05;;;;;;;27.05;8.55;;;9.00;99.90;;;;;;7399593;19;20472;-79
2022/05/15 03:45:37;;;;;;;22.42;7.57;;;8.90;99.90;;;;;;7399544;19;20018;-79
2022/05/15 03:48:07;;;;;;;24.20;7.70;;;8.90;99.90;;;;;;7399515;19;20010;-79
2022/05/15 03:50:36;;;;;;;25.65;8.02;;;9.40;99.90;;;;;;7398803;19;20011;-79
2022/05/15 03:53:05;;;;;;;26.85;8.27;;;;;;;;;;7399667;19;20007;-79
2022/05/15 03:55:34;;;;;;;30.45;9.23;;;9.40;99.90;;;;;;7397321;19;20038;-79
2022/05/15 03:58:03;;;;;;;26.50;9.00;;;9.10;99.90;;;;;;7398065;19;20078;-79
2022/05/15 04:00:34;;;;;;;28.13;7.85;;;9.10;99.90;;;;;;7399098;19;20070;-79
2022/05/15 04:03:06;;;;;;;25.25;8.50;;;9.20;99.90;;;;;;7398883;19;20108;-79
2022/05/15 04:05:36;;;;;;;30.77;8.38;;;;;;;;;;7399500;19;20032;-79
2022/05/15 04:08:05;;;;;;;21.60;7.05;;;9.00;99.90;;;;;;7399862;19;20354;-78
2022/05/15 04:10:35;;;;;;;17.95;6.85;;;9.10;99.90;;;;;;7399851;19;20010;-79
2022/05/15 04:13:04;;;;;;;21.90;7.97;;;;;;;;;;7398569;19;20021;-79
2022/05/15 04:15:33;;;;;;;16.85;5.82;;;9.10;99.90;;;;;;7398312;19;20512;-79
2022/05/15 04:18:05;;;;;;;18.35;5.88;;;9.10;99.90;;;;;;7397713;19;20353;-80
2022/05/15 04:20:34;;;;;;;14.70;5.95;;;9.10;99.90;;;;;;7401401;19;20021;-79
2022/05/15 04:23:05;;;;;;;16.88;6.05;;;9.20;99.90;;;;;;7398029;19;20023;-79
2022/05/15 04:25:36;;;;;;;25.05;7.00;;;;;;;;;;7398108;19;20422;-79
2022/05/15 04:28:05;;;;;;;19.80;7.60;;;;;;;;;;7399588;19;20021;-79
2022/05/15 04:30:34;;;;;;;24.77;8.00;;;9.20;99.90;;;;;;7396026;19;20504;-79
2022/05/15 04:33:05;;;;;;;25.92;7.93;;;9.70;99.90;;;;;;7397455;19;20536;-79
2022/05/15 04:35:34;;;;;;;26.08;7.63;;;9.30;99.90;;;;;;7397823;19;20078;-79
2022/05/15 04:38:03;;;;;;;23.73;7.32;;;;;;;;;;7397101;19;20027;-79
2022/05/15 04:40:33;;;;;;;20.50;7.18;;;;;;;;;;7397495;19;20027;-79
2022/05/15 04:43:02;;;;;;;24.45;7.63;;;;;;;;;;7397808;19;20014;-79
2022/05/15 04:45:31;;;;;;;22.77;7.20;;;9.60;99.90;;;;;;7400377;19;20012;-79
2022/05/15 04:48:06;;;;;;;21.45;7.10;;;9.50;99.90;;;;;;7397058;19;20014;-80
2022/05/15 04:50:37;;;;;;;23.48;7.13;;;9.60;99.90;;;;;;7397240;19;20086;-80
2022/05/15 04:53:18;;;;;;;17.92;6.45;;;9.90;99.90;;;;;;7397065;19;20095;-79
2022/05/15 04:55:47;;;;;;;18.75;6.55;;;10.00;99.90;;;;;;7395610;19;20014;-79
2022/05/15 04:58:16;;;;;;;15.82;6.50;;;9.80;99.90;;;;;;7396218;19;20018;-79
2022/05/15 05:00:45;;;;;;;18.33;6.60;;;9.80;99.90;;;;;;7396861;19;20015;-80
2022/05/15 05:03:16;;;;;;;19.70;6.45;;;9.70;99.90;;;;;;7400750;19;20472;-79
2022/05/15 05:05:46;;;;;;;21.67;6.72;;;9.90;99.90;;;;;;7396431;19;20010;-80
2022/05/15 05:08:15;;;;;;;18.30;6.22;;;9.90;99.90;;;;;;7396371;19;20034;-80
2022/05/15 05:10:44;;;;;;;22.17;6.93;;;10.30;99.90;;;;;;7395142;19;20043;-80
2022/05/15 05:13:13;;;;;;;21.77;6.38;;;10.10;99.90;;;;;;7396137;19;20018;-80
2022/05/15 05:15:42;;;;;;;20.38;6.53;;;10.00;99.90;;;;;;7396312;19;20017;-79
2022/05/15 05:18:11;;;;;;;24.17;6.65;;;9.80;99.90;;;;;;7396167;19;20011;-80
2022/05/15 05:20:43;;;;;;;19.17;6.32;;;10.10;99.90;;;;;;7399341;19;20090;-79
2022/05/15 05:23:12;;;;;;;17.73;6.40;;;10.50;99.90;;;;;;7400183;19;20018;-80
2022/05/15 05:25:42;;;;;;;19.88;6.55;;;;;;;;;;7395762;19;20078;-79
2022/05/15 05:28:11;;;;;;;17.80;6.43;;;10.30;99.90;;;;;;7395515;19;20011;-79
2022/05/15 05:30:40;;;;;;;21.77;6.70;;;10.30;99.90;;;;;;7395819;19;20010;-80
2022/05/15 05:33:10;;;;;;;17.90;6.20;;;10.40;99.90;;;;;;7395484;19;20014;-80
2022/05/15 05:35:40;;;;;;;17.90;6.25;;;10.70;99.90;;;;;;7398607;19;20468;-80
2022/05/15 05:38:11;;;;;;;19.55;6.50;;;10.70;99.90;;;;;;7395182;19;20014;-80
2022/05/15 05:40:41;;;;;;;18.17;6.57;;;;;;;;;;7393827;19;20025;-80
2022/05/15 05:43:10;;;;;;;18.67;5.90;;;10.50;99.90;;;;;;7395542;19;20018;-80
2022/05/15 05:45:40;;;;;;;16.50;6.30;;;;;;;;;;7395290;19;20010;-80
2022/05/15 05:48:09;;;;;;;20.85;5.50;;;10.60;99.90;;;;;;7395490;19;20042;-80
2022/05/15 05:50:38;;;;;;;19.50;5.50;;;10.90;99.90;;;;;;7394482;19;20038;-80
2022/05/15 05:53:10;;;;;;;20.25;6.18;;;11.00;99.90;;;;;;7397245;19;20536;-80
2022/05/15 05:55:39;;;;;;;24.08;5.68;;;11.00;99.90;;;;;;7393342;19;20007;-80
2022/05/15 05:58:09;;;;;;;24.25;6.25;;;;;;;;;;7394616;19;20028;-80
2022/05/15 06:00:40;;;;;;;16.70;5.43;;;11.40;99.90;;;;;;7393480;19;20089;-80
2022/05/15 06:05:52;;;;;;;19.10;6.35;;;11.30;99.90;;;;;;7397151;19;20147;-80
2022/05/15 06:08:28;;;;;;;22.88;8.00;;;11.50;99.90;;;;;;7394640;19;20010;-80
2022/05/15 06:10:57;;;;;;;18.17;6.05;;;11.60;99.90;;;;;;7398359;19;20010;-80
2022/05/15 06:13:26;;;;;;;23.77;6.30;;;11.70;99.90;;;;;;7394302;19;20007;-80
2022/05/15 06:15:55;;;;;;;23.95;6.68;;;11.70;99.90;;;;;;7394452;19;20375;-80
2022/05/15 06:18:24;;;;;;;18.27;6.03;;;11.80;99.90;;;;;;7394712;19;20011;-80
2022/05/15 06:20:53;;;;;;;23.63;6.57;;;;;;;;;;7393991;19;20078;-80
2022/05/15 06:23:25;;;;;;;24.55;6.55;;;11.80;99.90;;;;;;7393910;19;20014;-80
2022/05/15 06:25:54;;;;;;;21.73;6.90;;;12.20;99.90;;;;;;7394125;19;20030;-80
2022/05/15 06:28:23;;;;;;;21.77;6.60;;;12.20;99.90;;;;;;7398289;19;20010;-81
2022/05/15 06:30:52;;;;;;;22.50;6.10;;;12.10;99.90;;;;;;7393884;19;20534;-80
2022/05/15 06:33:21;;;;;;;21.58;6.47;;;12.30;99.90;;;;;;7391739;19;20014;-81
2022/05/15 06:35:50;;;;;;;23.40;7.22;;;12.40;99.90;;;;;;7396755;19;20079;-80
2022/05/15 06:38:19;;;;;;;26.60;7.97;;;;;;;;;;7393434;19;20027;-80
2022/05/15 06:40:50;;;;;;;22.55;7.55;;;12.50;99.90;;;;;;7391609;19;20007;-80
2022/05/15 06:43:20;;;;;;;20.42;7.30;;;12.60;99.90;;;;;;7393922;19;20019;-80
2022/05/15 06:45:49;;;;;;;21.55;6.47;;;12.70;99.90;;;;;;7393501;19;20023;-80
2022/05/15 06:48:18;;;;;;;20.73;6.63;;;12.80;99.90;;;;;;7393460;19;20019;-80
2022/05/15 06:50:49;;;;;;;21.42;6.60;;;12.80;99.90;;;;;;7392673;19;20015;-80
2022/05/15 06:53:18;;;;;;;21.02;7.00;;;12.90;99.90;;;;;;7391972;19;20014;-81
2022/05/15 06:58:32;;;;;;;17.05;6.60;;;13.00;99.90;;;;;;7391470;19;20014;-80
2022/05/15 07:01:01;;;;;;;21.45;6.47;;;13.20;99.90;;;;;;7394780;19;20014;-80
2022/05/15 07:03:30;;;;;;;24.80;7.47;;;13.30;99.90;;;;;;7393620;19;20022;-81
2022/05/15 07:06:00;;;;;;;23.80;6.43;;;13.70;99.90;;;;;;7395099;19;20019;-81
2022/05/15 07:08:29;;;;;;;21.98;6.68;;;;;;;;;;7395463;19;20082;-80
2022/05/15 07:11:01;;;;;;;19.90;6.70;;;13.50;99.90;;;;;;7392615;19;20348;-80
2022/05/15 07:13:32;;;;;;;18.98;5.80;;;13.60;99.90;;;;;;7393577;19;20022;-80
2022/05/15 07:16:01;;;;;;;20.95;6.10;;;13.70;99.90;;;;;;7392564;19;20018;-81
2022/05/15 07:18:30;;;;;;;24.98;6.13;;;13.80;99.90;;;;;;7395792;19;20019;-81
2022/05/15 07:20:59;;;;;;;22.30;6.90;;;13.90;99.90;;;;;;7390836;19;20018;-80
2022/05/15 07:23:28;;;;;;;24.35;6.13;;;14.00;99.90;;;;;;7392195;19;20023;-81
2022/05/15 07:25:57;;;;;;;21.10;6.25;;;14.00;99.90;;;;;;7392292;19;20015;-80
2022/05/15 07:28:29;;;;;;;19.55;5.65;;;14.20;99.90;;;;;;7392179;19;20035;-81
2022/05/15 07:30:58;;;;;;;19.80;6.22;;;14.20;99.90;;;;;;7392332;19;20017;-81
2022/05/15 07:33:29;;;;;;;18.33;5.82;;;14.30;99.90;;;;;;7394246;19;20025;-81
2022/05/15 07:35:58;;;;;;;26.23;6.20;;;14.40;99.90;;;;;;7396499;19;20021;-81
2022/05/15 07:38:27;;;;;;;21.02;5.50;;;14.50;99.90;;;;;;7392176;19;20019;-81
2022/05/15 07:40:56;;;;;;;21.50;5.43;;;14.50;99.90;;;;;;7389912;19;20021;-80
2022/05/15 07:43:25;;;;;;;18.67;5.35;;;14.80;99.90;;;;;;7392070;19;20087;-80
2022/05/15 07:45:57;;;;;;;15.30;5.38;;;14.90;99.90;;;;;;7391856;19;20349;-81
2022/05/15 07:48:25;;;;;;;21.00;5.50;;;15.20;99.90;;;;;;7391494;19;20078;-80
2022/05/15 07:50:56;;;;;;;18.92;5.47;;;15.00;99.90;;;;;;7390724;19;20014;-80
2022/05/15 07:53:26;;;;;;;17.92;5.55;;;15.20;99.90;;;;;;7396132;19;20010;-81
2022/05/15 07:55:59;;;;;;;17.40;5.35;;;15.30;99.90;;;;;;7389664;19;20511;-80
2022/05/15 07:58:30;;;;;;;18.95;4.90;;;15.20;99.90;;;;;;7391404;19;20066;-81
2022/05/15 08:01:04;;;;;;;16.92;4.82;;;15.40;99.90;;;;;;7389653;19;20014;-82
2022/05/15 08:03:38;;;;;;;15.55;4.80;;;15.30;99.90;;;;;;7391668;19;20012;-81
2022/05/15 08:08:50;;;;;;;14.35;4.38;;;16.40;99.90;;;;;;7400704;19;20018;-82
2022/05/15 08:11:20;;;;;;;19.85;4.35;;;15.80;99.90;;;;;;7397975;19;20027;-81
2022/05/15 08:13:49;;;;;;;20.27;4.53;;;15.70;99.60;;;;;;7397504;19;20038;-80
2022/05/15 08:16:21;;;;;;;14.45;4.15;;;15.90;99.70;;;;;;7401153;19;20031;-81
2022/05/15 08:24:14;;;;;;;19.30;5.00;;;16.10;98.80;;;;;;7398866;19;20353;-82
2022/05/15 08:26:44;;;;;;;10.50;3.75;;;16.40;98.70;;;;;;7401132;19;20030;-81
2022/05/15 08:29:14;;;;;;;13.10;4.25;;;16.40;98.90;;;;;;7398098;19;20044;-81
2022/05/15 08:31:46;;;;;;;20.10;4.93;;;16.60;98.80;;;;;;7398683;19;20018;-80
2022/05/15 08:34:15;;;;;;;25.67;5.25;;;16.50;99.30;;;;;;7398186;19;19998;-80
2022/05/15 08:36:45;;;;;;;14.85;4.63;;;16.60;98.40;;;;;;7397863;19;20026;-80
2022/05/15 08:39:14;;;;;;;21.23;4.97;;;16.60;98.00;;;;;;7397207;19;20357;-82
2022/05/15 08:41:49;;;;;;;15.63;3.92;;;16.50;98.80;;;;;;7397337;19;20007;-80
2022/05/15 08:44:21;;;;;;;12.32;4.10;;;16.80;98.50;;;;;;7401719;19;20081;-81
2022/05/15 08:47:10;;;;;;;13.55;4.53;;;17.00;97.50;;;;;;7397352;19;20018;-81
2022/05/15 08:49:41;;;;;;;12.82;3.80;;;17.00;97.00;;;;;;7397521;19;20042;-81
2022/05/15 08:52:14;;;;;;;10.27;3.85;;;17.10;96.90;;;;;;7395213;19;20038;-81
2022/05/15 08:54:54;;;;;;;13.43;4.85;;;17.20;97.10;;;;;;7396133;19;20051;-81
2022/05/15 08:57:34;;;;;;;13.20;4.07;;;17.50;96.30;;;;;;7396776;19;20015;-82
2022/05/15 09:00:10;;;;;;;13.85;3.80;;;17.50;96.00;;;;;;7398278;19;20020;-80
2022/05/15 09:02:45;;;;;;;13.13;3.38;;;17.60;95.70;;;;;;7396310;19;20015;-82
2022/05/15 09:05:20;;;;;;;14.32;3.80;;;17.80;95.30;;;;;;7397550;19;20024;-80
2022/05/15 09:08:03;;;;;;;8.93;3.10;;;17.70;95.00;;;;;;7397205;19;20034;-81
2022/05/15 09:10:38;;;;;;;11.93;3.90;;;18.10;94.70;;;;;;7396795;19;20074;-81
2022/05/15 09:13:24;;;;;;;12.25;3.70;;;18.10;94.50;;;;;;7396849;19;20007;-79
2022/05/15 09:16:00;;;;;;;15.60;3.07;;;18.20;93.90;;;;;;7395702;19;20070;-82
2022/05/15 09:18:37;;;;;;;12.32;3.45;;;18.10;93.70;;;;;;7396455;19;20035;-79
2022/05/15 09:21:11;;;;;;;11.30;3.33;;;18.10;93.60;;;;;;7394392;19;20078;-79
2022/05/15 09:23:43;;;;;;;14.65;3.47;;;18.10;93.50;;;;;;7396137;19;20021;-79
2022/05/15 09:26:20;;;;;;;15.48;3.25;;;18.30;93.60;;;;;;7396000;19;20457;-79
2022/05/15 09:28:54;;;;;;;12.13;3.75;;;18.50;92.60;;;;;;7395674;19;20015;-79
2022/05/15 09:31:28;;;;;;;9.73;3.00;;;18.60;92.50;;;;;;7395933;19;20021;-79
2022/05/15 09:34:03;;;;;;;10.15;3.25;;;18.60;93.20;;;;;;7399012;19;20025;-79
2022/05/15 09:36:44;;;;;;;14.02;3.35;;;18.90;92.50;;;;;;7396420;19;20006;-79
2022/05/15 09:39:17;;;;;;;12.25;3.90;;;18.90;92.10;;;;;;7395876;19;20011;-79
2022/05/15 09:44:33;;;;;;;12.10;3.65;;;19.20;91.40;;;;;;7395374;19;20472;-80
2022/05/15 09:47:16;;;;;;;13.60;3.20;;;19.10;91.20;;;;;;7395343;19;20021;-80
2022/05/15 09:49:49;;;;;;;15.60;3.45;;;19.30;91.10;;;;;;7395199;19;20011;-80
2022/05/15 09:52:22;;;;;;;12.43;3.15;;;19.50;91.80;;;;;;7399224;19;20010;-80
2022/05/15 09:54:53;;;;;;;13.05;3.25;;;19.50;90.80;;;;;;7394576;19;20045;-80
2022/05/15 09:57:25;;;;;;;12.13;3.20;;;19.40;91.10;;;;;;7394884;19;20014;-80
2022/05/15 10:00:02;;;;;;;12.52;3.13;;;19.80;91.50;;;;;;7394798;19;20021;-80
2022/05/15 10:02:41;;;;;;;11.70;2.95;;;20.10;90.70;;;;;;7398828;19;20018;-80
2022/05/15 10:05:20;;;;;;;11.35;2.95;;;20.40;89.30;;;;;;7395267;19;20488;-80
2022/05/15 10:08:00;;;;;;;14.38;3.53;;;20.60;87.20;;;;;;7396068;19;20019;-80
2022/05/15 10:10:34;;;;;;;13.93;3.38;;;20.80;86.70;;;;;;7394238;19;20010;-80
2022/05/15 10:13:09;;;;;;;11.80;4.05;;;21.30;85.30;;;;;;7394411;19;20010;-81
2022/05/15 10:15:42;;;;;;;9.80;3.45;;;21.90;82.20;;;;;;7394398;19;20018;-81
2022/05/15 10:18:17;;;;;;;11.02;3.33;;;22.10;82.00;;;;;;7394379;19;20011;-81
2022/05/15 10:20:50;;;;;;;10.38;3.00;;;22.50;79.90;;;;;;7391995;19;20010;-80
2022/05/15 10:23:24;;;;;;;10.38;3.15;;;22.80;77.50;;;;;;7395179;19;20026;-80
2022/05/15 10:25:59;;;;;;;9.00;2.80;;;23.00;76.10;;;;;;7398185;19;20014;-81
2022/05/15 10:28:35;;;;;;;7.95;3.00;;;23.20;76.10;;;;;;7390410;19;20488;-81
2022/05/15 10:31:08;;;;;;;11.10;3.20;;;23.20;72.10;;;;;;7394650;19;20022;-81
2022/05/15 10:33:42;;;;;;;9.25;3.30;;;23.40;73.50;;;;;;7394082;19;20034;-81
2022/05/15 10:36:43;;;;;;;14.20;3.33;;;23.60;73.00;;;;;;7393317;19;20010;-81
2022/05/15 10:39:21;;;;;;;9.52;3.17;;;23.90;68.90;;;;;;7392742;19;20014;-81
2022/05/15 10:42:03;;;;;;;10.95;2.92;;;24.20;70.40;;;;;;7393949;19;20025;-81
2022/05/15 10:44:42;;;;;;;9.10;3.10;;;24.30;67.60;;;;;;7393390;19;20006;-81
2022/05/15 10:47:14;;;;;;;12.95;2.95;;;24.40;68.40;;;;;;7393539;19;20034;-81
2022/05/15 10:50:12;;;;;;;7.28;2.60;;;24.20;69.00;;;;;;7394069;19;20338;-81
2022/05/15 10:52:58;;;;;;;9.95;2.78;;;24.20;63.80;;;;;;7396746;19;20015;-81
2022/05/15 10:58:25;;;;;;;9.65;2.67;;;24.80;62.60;;;;;;7393353;19;20365;-81
2022/05/15 11:01:01;;;;;;;7.90;2.63;;;25.20;62.20;;;;;;7395361;19;20015;-81
2022/05/15 11:03:53;;;;;;;11.23;2.83;;;24.90;62.80;;;;;;7393102;19;20486;-81
2022/05/15 11:06:37;;;;;;;11.23;3.03;;;24.90;63.40;;;;;;7395748;19;20086;-81
2022/05/15 11:09:17;;;;;;;9.87;2.90;;;25.30;63.80;;;;;;7392989;19;20018;-81
2022/05/15 11:11:57;;;;;;;8.90;2.80;;;25.50;62.20;;;;;;7392800;19;20818;-81
2022/05/15 11:14:33;;;;;;;10.82;3.33;;;25.70;60.80;;;;;;7394389;19;20508;-81
2022/05/15 11:17:16;;;;;;;13.90;3.28;;;26.30;60.60;;;;;;7395255;19;20042;-82
2022/05/15 11:19:47;;;;;;;8.32;2.97;;;25.70;58.80;;;;;;7392845;19;20015;-81
2022/05/15 11:22:27;;;;;;;8.68;3.13;;;25.90;60.90;;;;;;7389133;19;20022;-82
2022/05/15 11:25:06;;;;;;;7.85;2.72;;;25.70;57.70;;;;;;7392309;19;20007;-81
2022/05/15 11:27:44;;;;;;;9.57;2.83;;;25.50;58.30;;;;;;7392268;19;20014;-81
2022/05/15 11:30:17;;;;;;;9.52;2.80;;;26.10;57.70;;;;;;7393185;19;20489;-81
2022/05/15 11:33:06;;;;;;;10.00;2.60;;;25.90;57.40;;;;;;7393994;19;20015;-82
2022/05/15 11:35:38;;;;;;;9.73;2.70;;;26.20;55.70;;;;;;7392331;19;20074;-82
2022/05/15 11:38:27;;;;;;;9.38;2.78;;;26.50;54.00;;;;;;7392116;19;20011;-82
2022/05/15 11:40:59;;;;;;;7.95;2.70;;;26.20;55.30;;;;;;7397981;19;20371;-82
2022/05/15 11:43:54;;;;;;;9.05;2.67;;;26.20;56.00;;;;;;7399881;19;20476;-82
2022/05/15 11:46:23;;;;;;;7.20;2.40;;;26.80;53.40;;;;;;7398934;19;20024;-79
2022/05/15 11:48:58;;;;;;;7.40;2.40;;;26.90;53.60;;;;;;7398903;19;20015;-79
2022/05/15 11:51:31;;;;;;;8.63;2.60;;;26.80;52.90;;;;;;7397010;19;20015;-79
2022/05/15 11:54:04;;;;;;;10.40;2.70;;;26.80;52.80;;;;;;7399033;19;20023;-80
2022/05/15 11:56:43;;;;;;;8.23;3.05;;;27.10;51.50;;;;;;7399293;19;20031;-82
2022/05/15 11:59:26;;;;;;;8.48;2.58;;;27.00;52.10;;;;;;7401252;19;20015;-82
2022/05/15 12:01:58;;;;;;;10.70;2.85;;;27.40;50.50;;;;;;7397005;19;20078;-82
2022/05/15 12:04:57;;;;;;;11.93;2.85;;;27.70;48.20;;;;;;7398316;19;20087;-82
2022/05/15 12:07:49;;;;;;;7.32;2.42;;;27.70;47.40;;;;;;7401419;19;20018;-82
2022/05/15 12:10:25;;;;;;;7.50;2.40;;;27.70;47.30;;;;;;7399161;19;20018;-82
2022/05/15 12:13:10;;;;;;;;;;;27.80;48.60;;;;;;7399783;19;20011;-79
2022/05/15 12:15:45;;;;;;;7.15;2.20;;;28.10;45.30;;;;;;7398804;19;19933;-82
2022/05/15 12:18:24;;;;;;;6.57;2.45;;;28.60;44.90;;;;;;7397864;19;20014;-82
2022/05/15 12:20:56;;;;;;;9.90;2.83;;;28.50;45.70;;;;;;7397597;19;20472;-79
2022/05/15 12:23:27;;;;;;;5.22;2.25;;;28.20;46.60;;;;;;7399001;19;20014;-79
2022/05/15 12:25:59;;;;;;;7.10;2.42;;;28.40;45.50;;;;;;7397955;19;20007;-79
2022/05/15 12:28:54;;;;;;;8.20;2.47;;;28.50;46.10;;;;;;7397786;19;20020;-79
2022/05/15 12:31:32;;;;;;;8.48;2.67;;;29.00;45.30;;;;;;7397890;19;20366;-80
2022/05/15 12:34:09;;;;;;;6.97;2.45;;;28.70;44.20;;;;;;7397686;19;20029;-80
2022/05/15 12:36:42;;;;;;;9.95;2.42;;;27.60;45.70;;;;;;7397860;19;20014;-80
2022/05/15 12:39:17;;;;;;;7.63;2.45;;;27.30;47.60;;;;;;7397615;19;20038;-80
2022/05/15 12:41:47;;;;;;;9.98;2.60;;;28.30;47.50;;;;;;7399859;19;20010;-80
2022/05/15 12:44:30;;;;;;;8.73;3.00;;;27.50;47.10;;;;;;7397404;19;20017;-80
2022/05/15 12:47:02;;;;;;;7.35;2.55;;;27.80;46.20;;;;;;7396908;19;20046;-80
2022/05/15 12:49:33;;;;;;;7.65;2.83;;;28.50;46.10;;;;;;7396785;19;20014;-80
2022/05/15 12:52:15;;;;;;;6.85;2.40;;;28.60;45.30;;;;;;7393154;19;20409;-80
2022/05/15 12:54:47;;;;;;;6.28;2.30;;;29.20;45.10;;;;;;7396105;19;20012;-80
2022/05/15 12:57:18;;;;;;;6.60;2.17;;;29.10;44.80;;;;;;7397009;19;20147;-81
2022/05/15 12:59:52;;;;;;;5.35;1.80;;;28.50;44.20;;;;;;7397396;19;20026;-80
2022/05/15 13:02:32;;;;;;;5.35;2.38;;;27.50;44.60;;;;;;7397861;19;20024;-80
2022/05/15 13:05:04;;;;;;;7.60;2.00;;;28.30;45.60;;;;;;7400013;19;20014;-81
2022/05/15 13:07:40;;;;;;;6.43;2.30;;;29.10;44.00;;;;;;7396821;19;20540;-81
2022/05/15 13:10:12;;;;;;;6.72;2.25;;;29.00;43.40;;;;;;7396339;19;20662;-81
2022/05/15 13:12:51;;;;;;;5.32;2.35;;;29.70;43.90;;;;;;7396436;19;20025;-80
2022/05/15 13:15:26;;;;;;;6.70;2.35;;;30.20;42.20;;;;;;7398544;19;20011;-81
2022/05/15 13:17:57;;;;;;;8.07;2.38;;;29.80;41.50;;;;;;7396088;19;20335;-81
2022/05/15 13:20:29;;;;;;;6.25;2.03;;;30.20;41.60;;;;;;7396136;19;20010;-81
2022/05/15 13:22:59;;;;;;;5.28;2.55;;;31.10;40.30;;;;;;7394027;19;20674;-81
2022/05/15 13:25:34;;;;;;;8.27;2.70;;;30.80;39.80;;;;;;7396340;19;20034;-81
2022/05/15 13:28:04;;;;;;;4.78;2.28;;;31.10;40.30;;;;;;7398364;19;20378;-81
2022/05/15 13:30:37;;;;;;;7.63;2.92;;;31.20;39.20;;;;;;7396459;19;20014;-81
2022/05/15 13:33:09;;;;;;;6.93;2.47;;;31.70;38.30;;;;;;7399769;19;20010;-81
2022/05/15 13:35:40;;;;;;;6.03;2.35;;;31.20;38.50;;;;;;7396185;19;20018;-81
2022/05/15 13:38:19;;;;;;;6.28;2.22;;;32.00;38.20;;;;;;7395639;19;20034;-81
2022/05/15 13:43:35;;;;;;;5.90;2.20;;;31.30;36.60;;;;;;7395633;19;20031;-81